sensor_id;sensor_type;location;lat;lon;timestamp;temperature;humidity
41533;DHT22;27262;-35.248;149.138;2023-07-31T00:02:26;15.40;62.90
41533;DHT22;27262;-35.248;149.138;2023-07-31T00:04:57;15.40;62.90
41533;DHT22;27262;-35.248;149.138;2023-07-31T00:07:27;15.40;62.90
41533;DHT22;27262;-35.248;149.138;2023-07-31T00:09:57;15.40;62.90
41533;DHT22;27262;-35.248;149.138;2023-07-31T00:12:28;15.40;62.90
41533;DHT22;27262;-35.248;149.138;2023-07-31T00:14:58;15.40;62.90
41533;DHT22;27262;-35.248;149.138;2023-07-31T00:17:29;15.40;62.90
41533;DHT22;27262;-35.248;149.138;2023-07-31T00:19:59;15.40;62.80
41533;DHT22;27262;-35.248;149.138;2023-07-31T00:22:30;15.40;62.80
41533;DHT22;27262;-35.248;149.138;2023-07-31T00:25:00;15.40;62.80
41533;DHT22;27262;-35.248;149.138;2023-07-31T00:27:31;15.40;62.80
41533;DHT22;27262;-35.248;149.138;2023-07-31T00:30:01;15.40;62.80
41533;DHT22;27262;-35.248;149.138;2023-07-31T00:32:31;15.40;62.80
41533;DHT22;27262;-35.248;149.138;2023-07-31T00:35:02;15.40;62.80
41533;DHT22;27262;-35.248;149.138;2023-07-31T00:37:32;15.40;62.70
41533;DHT22;27262;-35.248;149.138;2023-07-31T00:40:03;15.40;62.80
41533;DHT22;27262;-35.248;149.138;2023-07-31T00:42:33;15.40;62.80
41533;DHT22;27262;-35.248;149.138;2023-07-31T00:45:04;15.40;62.70
41533;DHT22;27262;-35.248;149.138;2023-07-31T00:47:34;15.40;62.70
41533;DHT22;27262;-35.248;149.138;2023-07-31T00:50:05;15.40;62.70
41533;DHT22;27262;-35.248;149.138;2023-07-31T00:52:36;15.40;62.70
41533;DHT22;27262;-35.248;149.138;2023-07-31T00:55:07;15.40;62.70
41533;DHT22;27262;-35.248;149.138;2023-07-31T00:57:38;15.40;62.80
41533;DHT22;27262;-35.248;149.138;2023-07-31T01:00:11;15.50;62.80
41533;DHT22;27262;-35.248;149.138;2023-07-31T01:02:41;15.50;62.80
41533;DHT22;27262;-35.248;149.138;2023-07-31T01:05:12;15.50;62.70
41533;DHT22;27262;-35.248;149.138;2023-07-31T01:07:49;15.50;63.00
41533;DHT22;27262;-35.248;149.138;2023-07-31T01:10:25;15.50;62.70
41533;DHT22;27262;-35.248;149.138;2023-07-31T01:12:57;15.50;63.00
41533;DHT22;27262;-35.248;149.138;2023-07-31T01:15:28;15.50;62.80
41533;DHT22;27262;-35.248;149.138;2023-07-31T01:17:58;15.50;62.70
41533;DHT22;27262;-35.248;149.138;2023-07-31T01:20:29;15.50;62.70
41533;DHT22;27262;-35.248;149.138;2023-07-31T01:23:17;15.50;62.70
41533;DHT22;27262;-35.248;149.138;2023-07-31T01:31:22;15.50;62.70
41533;DHT22;27262;-35.248;149.138;2023-07-31T01:33:54;15.50;62.70
41533;DHT22;27262;-35.248;149.138;2023-07-31T01:36:27;15.50;62.60
41533;DHT22;27262;-35.248;149.138;2023-07-31T01:39:01;15.50;62.80
41533;DHT22;27262;-35.248;149.138;2023-07-31T01:41:33;15.60;62.60
41533;DHT22;27262;-35.248;149.138;2023-07-31T01:44:03;15.60;62.60
41533;DHT22;27262;-35.248;149.138;2023-07-31T01:46:34;15.60;62.60
41533;DHT22;27262;-35.248;149.138;2023-07-31T01:49:06;15.60;62.60
41533;DHT22;27262;-35.248;149.138;2023-07-31T01:51:36;15.60;62.70
41533;DHT22;27262;-35.248;149.138;2023-07-31T01:54:07;15.60;62.70
41533;DHT22;27262;-35.248;149.138;2023-07-31T01:56:37;15.60;62.60
41533;DHT22;27262;-35.248;149.138;2023-07-31T01:59:08;15.60;62.50
41533;DHT22;27262;-35.248;149.138;2023-07-31T02:01:39;15.60;62.60
41533;DHT22;27262;-35.248;149.138;2023-07-31T02:04:09;15.60;62.60
41533;DHT22;27262;-35.248;149.138;2023-07-31T02:06:39;15.60;62.50
41533;DHT22;27262;-35.248;149.138;2023-07-31T02:09:10;15.60;62.60
41533;DHT22;27262;-35.248;149.138;2023-07-31T02:11:40;15.60;62.50
41533;DHT22;27262;-35.248;149.138;2023-07-31T02:14:11;15.70;62.60
41533;DHT22;27262;-35.248;149.138;2023-07-31T02:16:41;15.60;62.50
41533;DHT22;27262;-35.248;149.138;2023-07-31T02:19:12;15.60;62.60
41533;DHT22;27262;-35.248;149.138;2023-07-31T02:21:42;15.60;62.60
41533;DHT22;27262;-35.248;149.138;2023-07-31T02:24:13;15.60;62.60
41533;DHT22;27262;-35.248;149.138;2023-07-31T02:26:43;15.60;62.70
41533;DHT22;27262;-35.248;149.138;2023-07-31T02:29:13;15.70;62.80
41533;DHT22;27262;-35.248;149.138;2023-07-31T02:31:44;15.70;62.80
41533;DHT22;27262;-35.248;149.138;2023-07-31T02:34:14;15.60;62.80
41533;DHT22;27262;-35.248;149.138;2023-07-31T02:36:44;15.70;62.90
41533;DHT22;27262;-35.248;149.138;2023-07-31T02:39:15;15.70;62.80
41533;DHT22;27262;-35.248;149.138;2023-07-31T02:41:45;15.70;62.90
41533;DHT22;27262;-35.248;149.138;2023-07-31T02:44:15;15.70;62.80
41533;DHT22;27262;-35.248;149.138;2023-07-31T02:46:46;15.70;62.80
41533;DHT22;27262;-35.248;149.138;2023-07-31T02:49:16;15.70;62.90
41533;DHT22;27262;-35.248;149.138;2023-07-31T02:51:46;15.70;62.80
41533;DHT22;27262;-35.248;149.138;2023-07-31T02:54:17;15.70;62.80
41533;DHT22;27262;-35.248;149.138;2023-07-31T02:56:47;15.70;62.90
41533;DHT22;27262;-35.248;149.138;2023-07-31T02:59:18;15.70;63.00
41533;DHT22;27262;-35.248;149.138;2023-07-31T03:01:49;15.80;63.00
41533;DHT22;27262;-35.248;149.138;2023-07-31T03:04:19;15.70;62.80
41533;DHT22;27262;-35.248;149.138;2023-07-31T03:06:50;15.80;62.90
41533;DHT22;27262;-35.248;149.138;2023-07-31T03:09:20;15.80;63.00
41533;DHT22;27262;-35.248;149.138;2023-07-31T03:11:51;15.80;63.00
41533;DHT22;27262;-35.248;149.138;2023-07-31T03:14:21;15.80;63.00
41533;DHT22;27262;-35.248;149.138;2023-07-31T03:16:52;15.80;63.00
41533;DHT22;27262;-35.248;149.138;2023-07-31T03:19:22;15.80;63.00
41533;DHT22;27262;-35.248;149.138;2023-07-31T03:21:52;15.80;62.90
41533;DHT22;27262;-35.248;149.138;2023-07-31T03:24:23;15.80;62.90
41533;DHT22;27262;-35.248;149.138;2023-07-31T03:26:53;15.80;62.90
41533;DHT22;27262;-35.248;149.138;2023-07-31T03:29:23;15.80;62.90
41533;DHT22;27262;-35.248;149.138;2023-07-31T03:31:54;15.80;63.00
41533;DHT22;27262;-35.248;149.138;2023-07-31T03:34:24;15.80;63.00
41533;DHT22;27262;-35.248;149.138;2023-07-31T03:36:54;15.90;63.00
41533;DHT22;27262;-35.248;149.138;2023-07-31T03:39:25;15.80;63.00
41533;DHT22;27262;-35.248;149.138;2023-07-31T03:41:55;15.90;63.00
41533;DHT22;27262;-35.248;149.138;2023-07-31T03:44:25;15.90;63.10
41533;DHT22;27262;-35.248;149.138;2023-07-31T03:46:56;15.90;63.00
41533;DHT22;27262;-35.248;149.138;2023-07-31T03:49:26;15.90;63.00
41533;DHT22;27262;-35.248;149.138;2023-07-31T03:51:57;15.90;63.00
41533;DHT22;27262;-35.248;149.138;2023-07-31T03:54:27;15.90;63.10
41533;DHT22;27262;-35.248;149.138;2023-07-31T03:56:57;15.90;63.10
41533;DHT22;27262;-35.248;149.138;2023-07-31T03:59:28;15.90;63.10
41533;DHT22;27262;-35.248;149.138;2023-07-31T04:01:58;15.90;63.00
41533;DHT22;27262;-35.248;149.138;2023-07-31T04:04:28;15.90;63.10
41533;DHT22;27262;-35.248;149.138;2023-07-31T04:07:02;15.90;63.10
41533;DHT22;27262;-35.248;149.138;2023-07-31T04:09:33;15.90;63.10
41533;DHT22;27262;-35.248;149.138;2023-07-31T04:12:03;16.00;63.10
41533;DHT22;27262;-35.248;149.138;2023-07-31T04:14:34;16.00;63.10
41533;DHT22;27262;-35.248;149.138;2023-07-31T04:17:04;16.00;63.10
41533;DHT22;27262;-35.248;149.138;2023-07-31T04:19:38;16.00;63.10
41533;DHT22;27262;-35.248;149.138;2023-07-31T04:22:08;16.00;63.10
41533;DHT22;27262;-35.248;149.138;2023-07-31T04:24:38;16.00;63.10
41533;DHT22;27262;-35.248;149.138;2023-07-31T04:27:09;16.00;63.10
41533;DHT22;27262;-35.248;149.138;2023-07-31T04:29:40;16.00;63.10
41533;DHT22;27262;-35.248;149.138;2023-07-31T04:32:12;16.00;63.10
41533;DHT22;27262;-35.248;149.138;2023-07-31T04:34:43;16.00;63.10
41533;DHT22;27262;-35.248;149.138;2023-07-31T04:37:13;16.00;63.10
41533;DHT22;27262;-35.248;149.138;2023-07-31T04:39:43;16.00;63.10
41533;DHT22;27262;-35.248;149.138;2023-07-31T04:42:14;16.00;63.10
41533;DHT22;27262;-35.248;149.138;2023-07-31T04:44:44;16.00;63.10
41533;DHT22;27262;-35.248;149.138;2023-07-31T04:47:15;16.00;63.10
41533;DHT22;27262;-35.248;149.138;2023-07-31T04:49:45;16.00;63.10
41533;DHT22;27262;-35.248;149.138;2023-07-31T04:52:15;16.10;63.20
41533;DHT22;27262;-35.248;149.138;2023-07-31T04:54:46;16.10;63.20
41533;DHT22;27262;-35.248;149.138;2023-07-31T04:57:16;16.10;63.20
41533;DHT22;27262;-35.248;149.138;2023-07-31T04:59:47;16.10;63.20
41533;DHT22;27262;-35.248;149.138;2023-07-31T05:02:18;16.10;63.20
41533;DHT22;27262;-35.248;149.138;2023-07-31T05:04:49;16.10;63.20
41533;DHT22;27262;-35.248;149.138;2023-07-31T05:07:19;16.10;63.20
41533;DHT22;27262;-35.248;149.138;2023-07-31T05:09:49;16.10;63.20
41533;DHT22;27262;-35.248;149.138;2023-07-31T05:12:20;16.10;63.20
41533;DHT22;27262;-35.248;149.138;2023-07-31T05:14:50;16.10;63.20
41533;DHT22;27262;-35.248;149.138;2023-07-31T05:17:20;16.10;63.20
41533;DHT22;27262;-35.248;149.138;2023-07-31T05:19:51;16.10;63.20
41533;DHT22;27262;-35.248;149.138;2023-07-31T05:22:22;16.10;63.20
41533;DHT22;27262;-35.248;149.138;2023-07-31T05:24:52;16.20;63.30
41533;DHT22;27262;-35.248;149.138;2023-07-31T05:27:24;16.20;63.30
41533;DHT22;27262;-35.248;149.138;2023-07-31T05:29:55;16.20;63.20
41533;DHT22;27262;-35.248;149.138;2023-07-31T05:32:25;16.20;63.20
41533;DHT22;27262;-35.248;149.138;2023-07-31T05:34:56;16.20;64.00
41533;DHT22;27262;-35.248;149.138;2023-07-31T05:37:26;16.20;63.30
41533;DHT22;27262;-35.248;149.138;2023-07-31T05:39:57;16.20;63.30
41533;DHT22;27262;-35.248;149.138;2023-07-31T05:42:27;16.20;63.20
41533;DHT22;27262;-35.248;149.138;2023-07-31T05:44:57;16.20;63.20
41533;DHT22;27262;-35.248;149.138;2023-07-31T05:47:28;16.20;63.20
41533;DHT22;27262;-35.248;149.138;2023-07-31T05:49:58;16.20;63.20
41533;DHT22;27262;-35.248;149.138;2023-07-31T05:52:28;16.30;63.30
41533;DHT22;27262;-35.248;149.138;2023-07-31T05:54:59;16.20;63.20
41533;DHT22;27262;-35.248;149.138;2023-07-31T05:57:30;16.30;63.30
41533;DHT22;27262;-35.248;149.138;2023-07-31T06:00:01;16.30;63.30
41533;DHT22;27262;-35.248;149.138;2023-07-31T06:02:32;16.30;63.30
41533;DHT22;27262;-35.248;149.138;2023-07-31T06:05:06;16.30;63.20
41533;DHT22;27262;-35.248;149.138;2023-07-31T06:07:36;16.30;63.20
41533;DHT22;27262;-35.248;149.138;2023-07-31T06:10:07;16.30;63.20
41533;DHT22;27262;-35.248;149.138;2023-07-31T06:12:38;16.30;63.20
41533;DHT22;27262;-35.248;149.138;2023-07-31T06:15:09;16.30;63.20
41533;DHT22;27262;-35.248;149.138;2023-07-31T06:17:40;16.30;63.20
41533;DHT22;27262;-35.248;149.138;2023-07-31T06:20:12;16.30;63.10
41533;DHT22;27262;-35.248;149.138;2023-07-31T06:22:42;16.30;63.10
41533;DHT22;27262;-35.248;149.138;2023-07-31T06:25:13;16.30;63.10
41533;DHT22;27262;-35.248;149.138;2023-07-31T06:27:43;16.30;63.10
41533;DHT22;27262;-35.248;149.138;2023-07-31T06:30:14;16.30;63.10
41533;DHT22;27262;-35.248;149.138;2023-07-31T06:32:45;16.30;63.10
41533;DHT22;27262;-35.248;149.138;2023-07-31T06:35:16;16.30;63.00
41533;DHT22;27262;-35.248;149.138;2023-07-31T06:37:46;16.30;63.10
41533;DHT22;27262;-35.248;149.138;2023-07-31T06:40:17;16.30;63.00
41533;DHT22;27262;-35.248;149.138;2023-07-31T06:42:47;16.30;63.10
41533;DHT22;27262;-35.248;149.138;2023-07-31T06:45:18;16.30;63.00
41533;DHT22;27262;-35.248;149.138;2023-07-31T06:47:49;16.30;63.00
41533;DHT22;27262;-35.248;149.138;2023-07-31T06:50:19;16.30;63.00
41533;DHT22;27262;-35.248;149.138;2023-07-31T06:52:50;16.30;62.90
41533;DHT22;27262;-35.248;149.138;2023-07-31T06:55:21;16.30;62.90
41533;DHT22;27262;-35.248;149.138;2023-07-31T06:57:54;16.30;63.00
41533;DHT22;27262;-35.248;149.138;2023-07-31T07:00:24;16.30;63.10
41533;DHT22;27262;-35.248;149.138;2023-07-31T07:02:55;16.40;63.20
41533;DHT22;27262;-35.248;149.138;2023-07-31T07:05:25;16.40;63.10
41533;DHT22;27262;-35.248;149.138;2023-07-31T07:07:56;16.40;63.20
41533;DHT22;27262;-35.248;149.138;2023-07-31T07:10:26;16.40;63.10
41533;DHT22;27262;-35.248;149.138;2023-07-31T07:12:56;16.40;63.10
41533;DHT22;27262;-35.248;149.138;2023-07-31T07:15:27;16.50;63.10
41533;DHT22;27262;-35.248;149.138;2023-07-31T07:17:58;16.50;63.20
41533;DHT22;27262;-35.248;149.138;2023-07-31T07:20:28;16.50;63.20
41533;DHT22;27262;-35.248;149.138;2023-07-31T07:22:59;16.50;63.10
41533;DHT22;27262;-35.248;149.138;2023-07-31T07:25:29;16.60;63.40
41533;DHT22;27262;-35.248;149.138;2023-07-31T07:27:59;16.60;63.20
41533;DHT22;27262;-35.248;149.138;2023-07-31T07:30:30;16.60;63.20
41533;DHT22;27262;-35.248;149.138;2023-07-31T07:33:00;16.60;63.30
41533;DHT22;27262;-35.248;149.138;2023-07-31T07:35:33;16.60;63.20
41533;DHT22;27262;-35.248;149.138;2023-07-31T07:38:04;16.60;63.20
41533;DHT22;27262;-35.248;149.138;2023-07-31T07:40:39;16.60;63.20
41533;DHT22;27262;-35.248;149.138;2023-07-31T07:43:09;16.60;63.10
41533;DHT22;27262;-35.248;149.138;2023-07-31T07:45:40;16.60;63.20
41533;DHT22;27262;-35.248;149.138;2023-07-31T07:48:10;16.60;63.00
41533;DHT22;27262;-35.248;149.138;2023-07-31T07:50:40;16.70;63.00
41533;DHT22;27262;-35.248;149.138;2023-07-31T07:53:11;16.70;63.10
41533;DHT22;27262;-35.248;149.138;2023-07-31T07:55:41;16.70;63.10
41533;DHT22;27262;-35.248;149.138;2023-07-31T07:58:11;16.70;63.10
41533;DHT22;27262;-35.248;149.138;2023-07-31T08:00:50;16.70;63.20
41533;DHT22;27262;-35.248;149.138;2023-07-31T08:03:20;16.70;63.10
41533;DHT22;27262;-35.248;149.138;2023-07-31T08:05:51;16.70;63.20
41533;DHT22;27262;-35.248;149.138;2023-07-31T08:08:21;16.70;63.20
41533;DHT22;27262;-35.248;149.138;2023-07-31T08:10:51;16.70;63.10
41533;DHT22;27262;-35.248;149.138;2023-07-31T08:13:22;16.80;63.20
41533;DHT22;27262;-35.248;149.138;2023-07-31T08:15:53;16.80;63.20
41533;DHT22;27262;-35.248;149.138;2023-07-31T08:18:24;16.80;63.20
41533;DHT22;27262;-35.248;149.138;2023-07-31T08:20:54;16.80;63.20
41533;DHT22;27262;-35.248;149.138;2023-07-31T08:23:25;16.80;63.10
41533;DHT22;27262;-35.248;149.138;2023-07-31T08:25:55;16.80;63.20
41533;DHT22;27262;-35.248;149.138;2023-07-31T08:28:26;16.80;63.10
41533;DHT22;27262;-35.248;149.138;2023-07-31T08:30:56;16.80;63.10
41533;DHT22;27262;-35.248;149.138;2023-07-31T08:33:27;16.80;63.10
41533;DHT22;27262;-35.248;149.138;2023-07-31T08:35:57;16.80;63.00
41533;DHT22;27262;-35.248;149.138;2023-07-31T08:38:28;16.80;63.10
41533;DHT22;27262;-35.248;149.138;2023-07-31T08:40:59;16.80;63.10
41533;DHT22;27262;-35.248;149.138;2023-07-31T08:43:30;16.80;63.00
41533;DHT22;27262;-35.248;149.138;2023-07-31T08:46:02;16.80;63.10
41533;DHT22;27262;-35.248;149.138;2023-07-31T08:48:32;16.90;63.10
41533;DHT22;27262;-35.248;149.138;2023-07-31T08:51:04;16.90;63.30
41533;DHT22;27262;-35.248;149.138;2023-07-31T08:53:35;17.00;63.30
41533;DHT22;27262;-35.248;149.138;2023-07-31T08:56:07;17.10;62.60
41533;DHT22;27262;-35.248;149.138;2023-07-31T08:58:38;17.20;62.70
41533;DHT22;27262;-35.248;149.138;2023-07-31T09:01:08;17.20;62.60
41533;DHT22;27262;-35.248;149.138;2023-07-31T09:03:39;17.20;62.60
41533;DHT22;27262;-35.248;149.138;2023-07-31T09:06:10;17.20;62.60
41533;DHT22;27262;-35.248;149.138;2023-07-31T09:08:42;17.20;62.60
41533;DHT22;27262;-35.248;149.138;2023-07-31T09:11:13;17.20;62.60
41533;DHT22;27262;-35.248;149.138;2023-07-31T09:13:43;17.30;62.60
41533;DHT22;27262;-35.248;149.138;2023-07-31T09:16:15;17.30;62.50
41533;DHT22;27262;-35.248;149.138;2023-07-31T09:18:55;17.30;62.40
41533;DHT22;27262;-35.248;149.138;2023-07-31T09:21:26;17.40;62.20
41533;DHT22;27262;-35.248;149.138;2023-07-31T09:23:58;17.40;62.30
41533;DHT22;27262;-35.248;149.138;2023-07-31T09:26:38;17.40;62.20
41533;DHT22;27262;-35.248;149.138;2023-07-31T09:29:19;17.50;62.20
41533;DHT22;27262;-35.248;149.138;2023-07-31T09:31:51;17.50;62.10
41533;DHT22;27262;-35.248;149.138;2023-07-31T09:34:38;17.50;62.20
41533;DHT22;27262;-35.248;149.138;2023-07-31T09:37:08;17.50;62.10
41533;DHT22;27262;-35.248;149.138;2023-07-31T09:39:49;17.50;62.20
41533;DHT22;27262;-35.248;149.138;2023-07-31T09:42:26;17.60;62.10
41533;DHT22;27262;-35.248;149.138;2023-07-31T09:45:07;17.60;62.10
41533;DHT22;27262;-35.248;149.138;2023-07-31T09:47:39;17.70;62.00
41533;DHT22;27262;-35.248;149.138;2023-07-31T09:50:09;17.70;62.00
41533;DHT22;27262;-35.248;149.138;2023-07-31T09:52:40;17.70;61.90
41533;DHT22;27262;-35.248;149.138;2023-07-31T09:55:11;17.80;61.90
41533;DHT22;27262;-35.248;149.138;2023-07-31T09:57:43;17.80;61.80
41533;DHT22;27262;-35.248;149.138;2023-07-31T10:00:16;17.90;61.70
41533;DHT22;27262;-35.248;149.138;2023-07-31T10:02:47;17.90;61.60
41533;DHT22;27262;-35.248;149.138;2023-07-31T10:05:19;17.90;61.40
41533;DHT22;27262;-35.248;149.138;2023-07-31T10:07:55;18.00;61.40
41533;DHT22;27262;-35.248;149.138;2023-07-31T10:10:26;18.00;61.20
41533;DHT22;27262;-35.248;149.138;2023-07-31T10:12:57;18.10;61.10
41533;DHT22;27262;-35.248;149.138;2023-07-31T10:15:29;18.10;61.10
41533;DHT22;27262;-35.248;149.138;2023-07-31T10:18:00;18.20;61.00
41533;DHT22;27262;-35.248;149.138;2023-07-31T10:20:31;18.20;60.90
41533;DHT22;27262;-35.248;149.138;2023-07-31T10:23:02;18.20;60.80
41533;DHT22;27262;-35.248;149.138;2023-07-31T10:25:33;18.30;60.70
41533;DHT22;27262;-35.248;149.138;2023-07-31T10:28:04;18.30;60.60
41533;DHT22;27262;-35.248;149.138;2023-07-31T10:30:35;18.30;60.30
41533;DHT22;27262;-35.248;149.138;2023-07-31T10:33:08;18.40;60.40
41533;DHT22;27262;-35.248;149.138;2023-07-31T10:35:38;18.90;59.10
41533;DHT22;27262;-35.248;149.138;2023-07-31T10:38:12;18.70;59.30
41533;DHT22;27262;-35.248;149.138;2023-07-31T10:40:43;18.70;59.60
41533;DHT22;27262;-35.248;149.138;2023-07-31T10:43:25;18.60;59.80
41533;DHT22;27262;-35.248;149.138;2023-07-31T10:46:00;18.60;59.80
41533;DHT22;27262;-35.248;149.138;2023-07-31T10:48:37;18.50;59.90
41533;DHT22;27262;-35.248;149.138;2023-07-31T10:51:09;18.50;59.90
41533;DHT22;27262;-35.248;149.138;2023-07-31T10:53:40;18.50;59.90
41533;DHT22;27262;-35.248;149.138;2023-07-31T10:56:11;18.50;60.00
41533;DHT22;27262;-35.248;149.138;2023-07-31T10:58:44;18.50;60.00
41533;DHT22;27262;-35.248;149.138;2023-07-31T11:01:18;18.50;60.10
41533;DHT22;27262;-35.248;149.138;2023-07-31T11:03:50;18.40;60.00
41533;DHT22;27262;-35.248;149.138;2023-07-31T11:06:29;18.40;60.00
41533;DHT22;27262;-35.248;149.138;2023-07-31T11:09:00;18.40;60.10
41533;DHT22;27262;-35.248;149.138;2023-07-31T11:11:30;18.30;60.10
41533;DHT22;27262;-35.248;149.138;2023-07-31T11:14:04;18.30;60.10
41533;DHT22;27262;-35.248;149.138;2023-07-31T11:16:35;18.30;60.20
41533;DHT22;27262;-35.248;149.138;2023-07-31T11:19:09;18.30;60.20
41533;DHT22;27262;-35.248;149.138;2023-07-31T11:21:39;18.30;60.20
41533;DHT22;27262;-35.248;149.138;2023-07-31T11:24:13;18.30;60.20
41533;DHT22;27262;-35.248;149.138;2023-07-31T11:26:53;18.30;60.30
41533;DHT22;27262;-35.248;149.138;2023-07-31T11:29:27;18.20;60.20
41533;DHT22;27262;-35.248;149.138;2023-07-31T11:31:59;18.20;60.30
41533;DHT22;27262;-35.248;149.138;2023-07-31T11:34:30;18.20;60.30
41533;DHT22;27262;-35.248;149.138;2023-07-31T11:37:01;18.20;60.30
41533;DHT22;27262;-35.248;149.138;2023-07-31T11:39:31;18.20;60.50
41533;DHT22;27262;-35.248;149.138;2023-07-31T11:42:04;18.20;60.50
41533;DHT22;27262;-35.248;149.138;2023-07-31T11:44:40;18.20;60.50
41533;DHT22;27262;-35.248;149.138;2023-07-31T11:47:17;18.20;60.50
41533;DHT22;27262;-35.248;149.138;2023-07-31T11:49:48;18.10;60.50
41533;DHT22;27262;-35.248;149.138;2023-07-31T11:52:19;18.10;60.50
41533;DHT22;27262;-35.248;149.138;2023-07-31T11:54:50;18.10;60.50
41533;DHT22;27262;-35.248;149.138;2023-07-31T11:57:21;18.10;60.60
41533;DHT22;27262;-35.248;149.138;2023-07-31T11:59:52;18.10;60.60
41533;DHT22;27262;-35.248;149.138;2023-07-31T12:02:23;18.00;60.60
41533;DHT22;27262;-35.248;149.138;2023-07-31T12:04:54;18.00;60.60
41533;DHT22;27262;-35.248;149.138;2023-07-31T12:07:24;18.00;60.70
41533;DHT22;27262;-35.248;149.138;2023-07-31T12:09:55;18.00;60.70
41533;DHT22;27262;-35.248;149.138;2023-07-31T12:12:26;18.00;60.70
41533;DHT22;27262;-35.248;149.138;2023-07-31T12:14:57;18.00;60.80
41533;DHT22;27262;-35.248;149.138;2023-07-31T12:17:28;17.90;60.80
41533;DHT22;27262;-35.248;149.138;2023-07-31T12:19:59;17.90;60.90
41533;DHT22;27262;-35.248;149.138;2023-07-31T12:22:29;17.90;61.00
41533;DHT22;27262;-35.248;149.138;2023-07-31T12:25:00;17.90;61.00
41533;DHT22;27262;-35.248;149.138;2023-07-31T12:27:33;17.90;61.00
41533;DHT22;27262;-35.248;149.138;2023-07-31T12:30:04;17.90;61.00
41533;DHT22;27262;-35.248;149.138;2023-07-31T12:32:35;17.80;61.00
41533;DHT22;27262;-35.248;149.138;2023-07-31T12:35:07;17.80;61.00
41533;DHT22;27262;-35.248;149.138;2023-07-31T12:37:39;17.80;61.10
41533;DHT22;27262;-35.248;149.138;2023-07-31T12:40:09;17.80;61.10
41533;DHT22;27262;-35.248;149.138;2023-07-31T12:42:41;17.70;61.10
41533;DHT22;27262;-35.248;149.138;2023-07-31T12:45:12;17.70;61.10
41533;DHT22;27262;-35.248;149.138;2023-07-31T12:47:42;17.70;61.20
41533;DHT22;27262;-35.248;149.138;2023-07-31T12:50:12;17.70;61.20
41533;DHT22;27262;-35.248;149.138;2023-07-31T12:52:43;17.60;61.20
41533;DHT22;27262;-35.248;149.138;2023-07-31T12:55:13;17.60;61.20
41533;DHT22;27262;-35.248;149.138;2023-07-31T12:57:44;17.60;61.30
41533;DHT22;27262;-35.248;149.138;2023-07-31T13:00:15;17.60;61.30
41533;DHT22;27262;-35.248;149.138;2023-07-31T13:02:45;17.60;61.30
41533;DHT22;27262;-35.248;149.138;2023-07-31T13:05:16;17.60;61.30
41533;DHT22;27262;-35.248;149.138;2023-07-31T13:07:49;17.50;61.30
41533;DHT22;27262;-35.248;149.138;2023-07-31T13:10:20;17.50;61.30
41533;DHT22;27262;-35.248;149.138;2023-07-31T13:12:51;17.50;61.30
41533;DHT22;27262;-35.248;149.138;2023-07-31T13:15:21;17.50;61.30
41533;DHT22;27262;-35.248;149.138;2023-07-31T13:17:51;17.50;61.40
41533;DHT22;27262;-35.248;149.138;2023-07-31T13:20:22;17.50;61.40
41533;DHT22;27262;-35.248;149.138;2023-07-31T13:22:52;17.50;61.40
41533;DHT22;27262;-35.248;149.138;2023-07-31T13:25:23;17.40;61.40
41533;DHT22;27262;-35.248;149.138;2023-07-31T13:27:54;17.40;61.40
41533;DHT22;27262;-35.248;149.138;2023-07-31T13:30:30;17.40;61.40
41533;DHT22;27262;-35.248;149.138;2023-07-31T13:33:01;17.40;61.40
41533;DHT22;27262;-35.248;149.138;2023-07-31T13:35:31;17.40;61.40
41533;DHT22;27262;-35.248;149.138;2023-07-31T13:38:02;17.40;61.50
41533;DHT22;27262;-35.248;149.138;2023-07-31T13:40:32;17.30;61.40
41533;DHT22;27262;-35.248;149.138;2023-07-31T13:43:03;17.30;61.50
41533;DHT22;27262;-35.248;149.138;2023-07-31T13:45:33;17.30;61.50
41533;DHT22;27262;-35.248;149.138;2023-07-31T13:48:05;17.30;61.50
41533;DHT22;27262;-35.248;149.138;2023-07-31T13:50:35;17.20;61.50
41533;DHT22;27262;-35.248;149.138;2023-07-31T13:53:06;17.20;61.50
41533;DHT22;27262;-35.248;149.138;2023-07-31T13:55:36;17.20;61.50
41533;DHT22;27262;-35.248;149.138;2023-07-31T13:58:07;17.20;61.60
41533;DHT22;27262;-35.248;149.138;2023-07-31T14:00:37;17.20;61.50
41533;DHT22;27262;-35.248;149.138;2023-07-31T14:03:08;17.20;61.60
41533;DHT22;27262;-35.248;149.138;2023-07-31T14:05:38;17.20;61.60
41533;DHT22;27262;-35.248;149.138;2023-07-31T14:08:08;17.20;61.70
41533;DHT22;27262;-35.248;149.138;2023-07-31T14:10:39;17.10;61.60
41533;DHT22;27262;-35.248;149.138;2023-07-31T14:13:10;17.10;61.60
41533;DHT22;27262;-35.248;149.138;2023-07-31T14:15:42;17.10;61.60
41533;DHT22;27262;-35.248;149.138;2023-07-31T14:18:13;17.10;61.60
41533;DHT22;27262;-35.248;149.138;2023-07-31T14:20:44;17.10;61.70
41533;DHT22;27262;-35.248;149.138;2023-07-31T14:23:14;17.10;61.70
41533;DHT22;27262;-35.248;149.138;2023-07-31T14:25:45;17.00;61.70
41533;DHT22;27262;-35.248;149.138;2023-07-31T14:28:16;17.00;61.70
41533;DHT22;27262;-35.248;149.138;2023-07-31T14:30:47;17.00;61.80
41533;DHT22;27262;-35.248;149.138;2023-07-31T14:33:17;17.00;61.80
41533;DHT22;27262;-35.248;149.138;2023-07-31T14:35:48;17.00;61.80
41533;DHT22;27262;-35.248;149.138;2023-07-31T14:38:27;17.00;61.80
41533;DHT22;27262;-35.248;149.138;2023-07-31T14:40:57;17.00;61.80
41533;DHT22;27262;-35.248;149.138;2023-07-31T14:43:28;16.90;61.80
41533;DHT22;27262;-35.248;149.138;2023-07-31T14:45:58;16.90;61.80
41533;DHT22;27262;-35.248;149.138;2023-07-31T14:48:29;16.90;61.90
41533;DHT22;27262;-35.248;149.138;2023-07-31T14:51:00;16.90;61.90
41533;DHT22;27262;-35.248;149.138;2023-07-31T14:53:31;16.90;61.90
41533;DHT22;27262;-35.248;149.138;2023-07-31T14:56:01;16.90;61.90
41533;DHT22;27262;-35.248;149.138;2023-07-31T14:58:32;16.90;62.00
41533;DHT22;27262;-35.248;149.138;2023-07-31T15:01:02;16.90;62.10
41533;DHT22;27262;-35.248;149.138;2023-07-31T15:03:33;16.80;62.00
41533;DHT22;27262;-35.248;149.138;2023-07-31T15:06:03;16.80;62.00
41533;DHT22;27262;-35.248;149.138;2023-07-31T15:08:35;16.80;62.00
41533;DHT22;27262;-35.248;149.138;2023-07-31T15:11:07;16.80;62.00
41533;DHT22;27262;-35.248;149.138;2023-07-31T15:13:37;16.80;62.00
41533;DHT22;27262;-35.248;149.138;2023-07-31T15:16:07;16.80;62.00
41533;DHT22;27262;-35.248;149.138;2023-07-31T15:18:38;16.80;62.10